createdAt,value
2018-12-29T00:04:56.812Z,102989.36
2018-12-29T00:08:24.562Z,102987.60
2018-12-29T00:11:50.151Z,102997.39
2018-12-29T00:15:15.779Z,103000.09
2018-12-29T00:18:41.560Z,102991.16
2018-12-29T00:22:07.972Z,102998.57
2018-12-29T00:25:33.589Z,103001.58
2018-12-29T00:28:59.262Z,102999.36
2018-12-29T00:32:25.441Z,102996.69
2018-12-29T00:35:51.140Z,102998.02
2018-12-29T00:39:17.001Z,103000.33
2018-12-29T00:42:42.491Z,102999.44
2018-12-29T00:46:10.840Z,102996.33
2018-12-29T00:49:39.154Z,103007.39
2018-12-29T00:53:06.853Z,103009.60
2018-12-29T00:56:32.342Z,103015.89
2018-12-29T00:59:58.286Z,103012.28
2018-12-29T01:03:23.807Z,103008.24
2018-12-29T01:06:49.413Z,102997.94
2018-12-29T01:10:15.254Z,102993.47
2018-12-29T01:13:41.153Z,102993.23
2018-12-29T01:17:09.144Z,102996.57
2018-12-29T01:20:36.846Z,102984.82
2018-12-29T01:24:04.530Z,102993.64
2018-12-29T01:27:32.940Z,102994.97
2018-12-29T01:31:01.420Z,102991.88
2018-12-29T01:34:26.949Z,102997.52
2018-12-29T01:37:52.693Z,102994.17
2018-12-29T01:41:19.093Z,102995.26
2018-12-29T01:44:47.070Z,103002.74
2018-12-29T01:48:12.999Z,103001.22
2018-12-29T01:51:40.867Z,103001.73
2018-12-29T01:55:11.501Z,102996.44
2018-12-29T01:58:40.085Z,102992.68
2018-12-29T02:02:08.177Z,102996.25
2018-12-29T02:05:34.091Z,103000.28
2018-12-29T02:09:01.774Z,103006.76
2018-12-29T02:12:27.394Z,103012.56
2018-12-29T02:15:52.930Z,103013.02
2018-12-29T02:19:18.495Z,103015.16
2018-12-29T02:22:44.354Z,103015.48
2018-12-29T02:26:09.901Z,103020.66
2018-12-29T02:29:35.842Z,103012.25
2018-12-29T02:33:01.420Z,103019.08
2018-12-29T02:36:27.006Z,103016.18
2018-12-29T02:39:52.521Z,103017.88
2018-12-29T02:43:18.039Z,103015.59
2018-12-29T02:46:43.594Z,103016.27
2018-12-29T02:50:09.298Z,103018.50
2018-12-29T02:53:34.841Z,103025.00
2018-12-29T02:57:00.397Z,103035.27
2018-12-29T03:00:25.951Z,103038.73
2018-12-29T03:03:51.772Z,103034.84
2018-12-29T03:07:17.319Z,103039.89
2018-12-29T03:10:42.878Z,103040.25
2018-12-29T03:14:08.441Z,103033.59
2018-12-29T03:17:34.008Z,103031.33
2018-12-29T03:20:59.590Z,103029.66
2018-12-29T03:24:25.207Z,103030.52
2018-12-29T03:27:51.105Z,103023.30
2018-12-29T03:31:16.618Z,103021.28
2018-12-29T03:34:42.162Z,103021.53
2018-12-29T03:38:07.692Z,103019.63
2018-12-29T03:41:33.537Z,103012.66
2018-12-29T03:44:59.140Z,103013.02
2018-12-29T03:48:24.765Z,102998.66
2018-12-29T03:51:50.650Z,102991.03
2018-12-29T03:55:16.204Z,102980.55
2018-12-29T03:58:41.779Z,102985.83
2018-12-29T04:02:07.641Z,102981.89
2018-12-29T04:05:33.187Z,102976.92
2018-12-29T04:09:35.566Z,102980.31
2018-12-29T04:13:02.662Z,102978.11
2018-12-29T04:16:28.230Z,102972.67
2018-12-29T04:19:54.070Z,102969.63
2018-12-29T04:23:19.574Z,102968.03
2018-12-29T04:26:45.246Z,102973.97
2018-12-29T04:30:10.770Z,102963.07
2018-12-29T04:33:36.465Z,102961.98
2018-12-29T04:37:02.056Z,102957.78
2018-12-29T04:40:27.664Z,102959.19
2018-12-29T04:43:53.203Z,102954.70
2018-12-29T04:47:18.755Z,102957.94
2018-12-29T04:50:44.369Z,102955.13
2018-12-29T04:54:09.955Z,102948.94
2018-12-29T04:57:35.548Z,102943.58
2018-12-29T05:01:01.126Z,102940.73
2018-12-29T05:04:26.669Z,102933.23
2018-12-29T05:07:52.481Z,102937.55
2018-12-29T05:11:18.060Z,102937.12
2018-12-29T05:14:43.625Z,102938.98
2018-12-29T05:18:09.284Z,102932.81
2018-12-29T05:21:35.120Z,102936.23
2018-12-29T05:25:00.993Z,102941.99
2018-12-29T05:28:26.621Z,102948.45
2018-12-29T05:31:52.179Z,102951.39
2018-12-29T05:35:17.727Z,102949.50
2018-12-29T05:38:43.281Z,102952.48
2018-12-29T05:42:09.045Z,102970.57
2018-12-29T05:45:34.624Z,102976.60
2018-12-29T05:49:00.502Z,102978.58
2018-12-29T05:52:26.096Z,102989.93
2018-12-29T05:55:51.696Z,102985.98
2018-12-29T05:59:17.252Z,102995.09
2018-12-29T06:02:42.827Z,102996.66
2018-12-29T06:06:08.412Z,103000.07
2018-12-29T06:09:34.013Z,103004.52
2018-12-29T06:12:59.507Z,103012.70
2018-12-29T06:16:27.854Z,103013.76
2018-12-29T06:19:52.818Z,103018.17
2018-12-29T06:23:18.939Z,103006.23
2018-12-29T06:26:44.484Z,103005.96
2018-12-29T06:30:10.044Z,102997.78
2018-12-29T06:33:35.571Z,103007.90
2018-12-29T06:37:01.091Z,102991.16
2018-12-29T06:40:26.632Z,102998.71
2018-12-29T06:43:52.473Z,102988.17
2018-12-29T06:47:18.049Z,102997.38
2018-12-29T06:50:43.672Z,103005.34
2018-12-29T06:54:09.253Z,103000.25
2018-12-29T06:57:34.890Z,102997.86
2018-12-29T07:01:00.758Z,102990.98
2018-12-29T07:04:26.289Z,103003.82
2018-12-29T07:07:51.840Z,103011.02
2018-12-29T07:11:17.381Z,103016.40
2018-12-29T07:14:42.933Z,103014.51
2018-12-29T07:18:08.649Z,103014.26
2018-12-29T07:21:34.304Z,103011.27
2018-12-29T07:25:00.182Z,103021.56
2018-12-29T07:28:25.842Z,103022.78
2018-12-29T07:31:51.941Z,103027.23
2018-12-29T07:35:17.525Z,103029.47
2018-12-29T07:38:43.104Z,103033.07
2018-12-29T07:42:08.988Z,103038.09
2018-12-29T07:45:34.561Z,103038.59
2018-12-29T07:49:00.161Z,103029.63
2018-12-29T07:52:25.769Z,103021.73
2018-12-29T07:55:51.644Z,103024.46
2018-12-29T07:59:17.198Z,103034.14
2018-12-29T08:02:42.761Z,103028.77
2018-12-29T08:06:08.490Z,103019.16
2018-12-29T08:09:34.077Z,103014.89
2018-12-29T08:12:59.645Z,103020.84
2018-12-29T08:16:25.505Z,103022.41
2018-12-29T08:19:51.057Z,103012.47
2018-12-29T08:23:16.921Z,103014.23
2018-12-29T08:26:42.480Z,103004.03
2018-12-29T08:30:08.522Z,103005.83
2018-12-29T08:33:34.067Z,103007.08
2018-12-29T08:37:00.017Z,102999.21
2018-12-29T08:40:25.868Z,102992.56
2018-12-29T08:43:51.799Z,102993.08
2018-12-29T08:47:17.401Z,102995.21
2018-12-29T08:50:42.972Z,102986.05
2018-12-29T08:54:08.544Z,102995.50
2018-12-29T08:57:34.063Z,102994.20
2018-12-29T09:00:59.564Z,102983.19
2018-12-29T09:04:25.127Z,102985.38
2018-12-29T09:07:50.783Z,102981.45
2018-12-29T09:11:16.353Z,102986.14
2018-12-29T09:14:41.911Z,102999.13
2018-12-29T09:18:07.502Z,102987.84
2018-12-29T09:21:33.164Z,102989.63
2018-12-29T09:24:58.742Z,102993.91
2018-12-29T09:28:24.385Z,103001.78
2018-12-29T09:31:50.347Z,102990.66
2018-12-29T09:35:16.015Z,102987.05
2018-12-29T09:38:41.602Z,102989.50
2018-12-29T09:42:07.153Z,102977.38
2018-12-29T09:45:33.027Z,102970.64
2018-12-29T09:48:58.699Z,102967.94
2018-12-29T09:52:24.254Z,102953.17
2018-12-29T09:55:49.784Z,102941.52
2018-12-29T09:59:15.596Z,102927.84
2018-12-29T10:02:41.163Z,102924.55
2018-12-29T10:06:06.777Z,102915.84
2018-12-29T10:09:32.303Z,102906.05
2018-12-29T10:12:57.834Z,102904.48
2018-12-29T10:16:23.449Z,102891.66
2018-12-29T10:19:49.271Z,102887.02
2018-12-29T10:23:14.890Z,102883.87
2018-12-29T10:26:40.466Z,102881.58
2018-12-29T10:30:06.290Z,102867.63
2018-12-29T10:33:31.811Z,102867.25
2018-12-29T10:36:57.370Z,102870.56
2018-12-29T10:40:23.186Z,102874.80
2018-12-29T10:43:48.744Z,102874.00
2018-12-29T10:47:14.262Z,102878.05
2018-12-29T10:50:39.819Z,102887.52
2018-12-29T10:54:05.382Z,102887.53
2018-12-29T10:57:31.208Z,102885.88
2018-12-29T11:00:56.813Z,102877.09
2018-12-29T11:04:22.601Z,102868.55
2018-12-29T11:07:48.254Z,102860.19
2018-12-29T11:11:13.801Z,102834.81
2018-12-29T11:14:39.332Z,102820.83
2018-12-29T11:18:04.969Z,102807.13
2018-12-29T11:21:30.495Z,102801.28
2018-12-29T11:24:56.062Z,102815.65
2018-12-29T11:28:21.602Z,102828.59
2018-12-29T11:31:48.454Z,102829.39
2018-12-29T11:35:14.084Z,102828.84
2018-12-29T11:38:39.635Z,102831.19
2018-12-29T11:42:05.332Z,102811.98
2018-12-29T11:45:30.857Z,102813.36
2018-12-29T11:48:56.396Z,102799.59
2018-12-29T11:52:21.937Z,102801.08
2018-12-29T11:55:47.524Z,102762.61
2018-12-29T11:59:13.077Z,102766.42
2018-12-29T12:02:38.631Z,102754.94
2018-12-29T12:06:04.164Z,102755.80
2018-12-29T12:09:30.396Z,102779.66
2018-12-29T12:12:58.081Z,102781.58
2018-12-29T12:16:23.617Z,102772.00
2018-12-29T12:19:49.177Z,102775.15
2018-12-29T12:23:14.694Z,102742.22
2018-12-29T12:26:40.285Z,102730.12
2018-12-29T12:30:06.220Z,102711.25
2018-12-29T12:33:31.738Z,102732.08
2018-12-29T12:36:57.677Z,102739.75
2018-12-29T12:40:23.571Z,102698.00
2018-12-29T12:43:49.562Z,102724.91
2018-12-29T12:47:15.140Z,102721.23
2018-12-29T12:50:40.722Z,102712.06
2018-12-29T12:54:06.282Z,102720.98
2018-12-29T12:57:31.917Z,102724.12
2018-12-29T13:00:57.840Z,102716.05
2018-12-29T13:04:23.819Z,102725.34
2018-12-29T13:07:49.371Z,102733.91
2018-12-29T13:11:15.310Z,102747.96
2018-12-29T13:14:41.177Z,102701.95
2018-12-29T13:18:12.921Z,102681.37
2018-12-29T13:21:34.985Z,102698.80
2018-12-29T13:25:00.663Z,102693.84
2018-12-29T13:28:26.305Z,102698.16
2018-12-29T13:31:54.884Z,102708.91
2018-12-29T13:35:20.663Z,102690.81
2018-12-29T13:38:46.358Z,102678.36
2018-12-29T13:42:12.134Z,102668.92
2018-12-29T13:45:37.835Z,102656.27
2018-12-29T13:49:03.514Z,102639.55
2018-12-29T13:52:29.171Z,102627.96
2018-12-29T13:55:54.681Z,102620.92
2018-12-29T13:59:20.231Z,102601.29
2018-12-29T14:02:45.807Z,102545.86
2018-12-29T14:06:11.357Z,102565.48
2018-12-29T14:09:36.925Z,102555.78
2018-12-29T14:13:02.560Z,102559.25
2018-12-29T14:16:28.422Z,102574.89
2018-12-29T14:19:54.224Z,102561.67
2018-12-29T14:23:20.075Z,102564.77
2018-12-29T14:26:45.665Z,102584.25
2018-12-29T14:30:11.213Z,102582.23
2018-12-29T14:33:36.734Z,102563.42
2018-12-29T14:37:02.307Z,102567.72
2018-12-29T14:40:27.922Z,102558.31
2018-12-29T14:43:53.508Z,102563.41
2018-12-29T14:47:19.064Z,102551.70
2018-12-29T14:50:44.912Z,102534.80
2018-12-29T14:54:10.728Z,102538.14
2018-12-29T14:57:36.270Z,102536.25
2018-12-29T15:01:01.836Z,102538.48
2018-12-29T15:04:27.763Z,102523.85
2018-12-29T15:07:53.297Z,102520.34
2018-12-29T15:11:19.715Z,102525.98
2018-12-29T15:14:45.355Z,102528.88
2018-12-29T15:18:10.895Z,102537.45
2018-12-29T15:21:37.517Z,102539.88
2018-12-29T15:25:03.215Z,102581.55
2018-12-29T15:28:28.989Z,102545.19
2018-12-29T15:31:54.622Z,102545.62
2018-12-29T15:35:22.676Z,102542.63
2018-12-29T15:38:48.294Z,102559.88
2018-12-29T15:42:14.076Z,102587.50
2018-12-29T15:45:39.597Z,102578.78
2018-12-29T15:49:05.171Z,102574.83
2018-12-29T15:52:30.800Z,102572.94
2018-12-29T15:55:56.454Z,102579.77
2018-12-29T15:59:22.096Z,102587.77
2018-12-29T16:02:47.716Z,102579.72
2018-12-29T16:06:13.326Z,102563.44
2018-12-29T16:09:38.868Z,102575.37
2018-12-29T16:13:04.716Z,102561.13
2018-12-29T16:16:30.263Z,102561.54
2018-12-29T16:19:55.816Z,102569.45
2018-12-29T16:23:21.718Z,102552.61
2018-12-29T16:26:48.348Z,102544.52
2018-12-29T16:30:13.970Z,102541.36
2018-12-29T16:33:39.564Z,102539.48
2018-12-29T16:37:05.545Z,102524.59
2018-12-29T16:40:31.663Z,102525.05
2018-12-29T16:43:57.241Z,102510.76
2018-12-29T16:47:22.872Z,102511.41
2018-12-29T16:50:49.707Z,102503.12
2018-12-29T16:54:15.355Z,102490.95
2018-12-29T16:57:40.955Z,102485.27
2018-12-29T17:01:06.564Z,102490.81
2018-12-29T17:04:32.424Z,102485.92
2018-12-29T17:07:58.010Z,102481.05
2018-12-29T17:11:23.599Z,102474.03
2018-12-29T17:14:49.446Z,102476.52
2018-12-29T17:18:15.136Z,102472.97
2018-12-29T17:21:40.761Z,102458.34
2018-12-29T17:25:06.650Z,102473.20
2018-12-29T17:28:32.264Z,102478.68
2018-12-29T17:31:58.131Z,102462.51
2018-12-29T17:35:25.350Z,102468.36
2018-12-29T17:38:51.428Z,102480.63
2018-12-29T17:42:17.411Z,102460.97
2018-12-29T17:45:43.344Z,102470.05
2018-12-29T17:49:08.934Z,102465.94
2018-12-29T17:52:34.685Z,102467.52
2018-12-29T17:56:00.919Z,102444.29
2018-12-29T17:59:26.821Z,102464.37
2018-12-29T18:02:52.404Z,102460.58
2018-12-29T18:06:18.050Z,102458.33
2018-12-29T18:09:43.631Z,102448.44
2018-12-29T18:13:09.174Z,102440.76
2018-12-29T18:16:34.887Z,102465.91
2018-12-29T18:20:00.944Z,102463.11
2018-12-29T18:23:26.610Z,102454.17
2018-12-29T18:26:52.256Z,102448.56
2018-12-29T18:30:17.868Z,102466.34
2018-12-29T18:33:43.918Z,102471.91
2018-12-29T18:37:09.766Z,102472.29
2018-12-29T18:40:35.320Z,102464.13
2018-12-29T18:44:00.960Z,102472.63
2018-12-29T18:47:26.520Z,102460.30
2018-12-29T18:50:52.076Z,102464.03
2018-12-29T18:54:17.705Z,102462.05
2018-12-29T18:57:43.283Z,102450.98
2018-12-29T19:01:08.873Z,102447.55
2018-12-29T19:04:34.527Z,102453.34
2018-12-29T19:08:00.187Z,102469.34
2018-12-29T19:11:25.832Z,102463.39
2018-12-29T19:14:51.806Z,102466.30
2018-12-29T19:18:17.647Z,102471.60
2018-12-29T19:21:43.605Z,102463.42
2018-12-29T19:25:09.153Z,102473.30
2018-12-29T19:28:34.862Z,102466.98
2018-12-29T19:32:00.463Z,102472.73
2018-12-29T19:35:26.415Z,102468.33
2018-12-29T19:38:52.037Z,102463.68
2018-12-29T19:42:17.621Z,102465.78
2018-12-29T19:45:43.182Z,102486.12
2018-12-29T19:49:08.762Z,102460.57
2018-12-29T19:52:34.320Z,102447.47
2018-12-29T19:55:59.928Z,102448.49
2018-12-29T19:59:25.530Z,102457.66
2018-12-29T20:02:51.177Z,102447.33
2018-12-29T20:06:17.073Z,102448.09
2018-12-29T20:09:42.649Z,102453.22
2018-12-29T20:13:08.234Z,102445.34
2018-12-29T20:16:33.770Z,102457.53
2018-12-29T20:20:01.540Z,102457.24
2018-12-29T20:23:26.681Z,102448.48
2018-12-29T20:26:52.253Z,102452.06
2018-12-29T20:30:17.838Z,102462.75
2018-12-29T20:33:43.510Z,102449.30
2018-12-29T20:37:09.084Z,102465.27
2018-12-29T20:40:34.635Z,102469.22
2018-12-29T20:44:00.520Z,102469.88
2018-12-29T20:47:26.129Z,102472.06
2018-12-29T20:50:51.776Z,102481.34
2018-12-29T20:54:17.439Z,102489.49
2018-12-29T20:57:53.016Z,102486.19
2018-12-29T21:01:18.706Z,102481.34
2018-12-29T21:04:44.271Z,102493.70
2018-12-29T21:08:10.097Z,102492.41
2018-12-29T21:11:35.650Z,102503.86
2018-12-29T21:15:01.489Z,102505.59
2018-12-29T21:18:27.048Z,102503.70
2018-12-29T21:21:52.935Z,102506.88
2018-12-29T21:25:20.178Z,102506.46
2018-12-29T21:28:45.801Z,102502.35
2018-12-29T21:32:11.376Z,102500.89
2018-12-29T21:35:37.002Z,102505.41
2018-12-29T21:39:05.730Z,102515.59
2018-12-29T21:42:31.770Z,102519.90
2018-12-29T21:46:00.818Z,102522.09
2018-12-29T21:49:27.028Z,102519.39
2018-12-29T21:52:53.369Z,102518.98
2018-12-29T21:56:19.313Z,102516.56
2018-12-29T21:59:45.517Z,102529.38
2018-12-29T22:03:11.917Z,102536.70
2018-12-29T22:06:38.382Z,102553.68
2018-12-29T22:10:04.562Z,102560.14
2018-12-29T22:13:30.740Z,102557.45
2018-12-29T22:16:56.961Z,102565.77
2018-12-29T22:20:23.213Z,102556.58
2018-12-29T22:23:49.794Z,102552.77
2018-12-29T22:27:18.911Z,102553.66
2018-12-29T22:30:45.589Z,102545.77
2018-12-29T22:34:11.788Z,102556.63
2018-12-29T22:37:38.166Z,102570.98
2018-12-29T22:41:04.848Z,102582.28
2018-12-29T22:44:31.376Z,102597.67
2018-12-29T22:48:03.475Z,102588.02
2018-12-29T22:51:29.819Z,102592.68
2018-12-29T22:54:55.764Z,102580.02
2018-12-29T22:58:23.084Z,102594.17
2018-12-29T23:01:48.913Z,102595.38
2018-12-29T23:05:14.508Z,102596.88
2018-12-29T23:08:40.120Z,102597.81
2018-12-29T23:12:06.499Z,102599.52
2018-12-29T23:15:32.250Z,102596.00
2018-12-29T23:18:58.194Z,102594.08
2018-12-29T23:22:23.741Z,102600.15
2018-12-29T23:25:49.410Z,102612.31
2018-12-29T23:29:15.036Z,102616.36
2018-12-29T23:32:40.583Z,102617.44
2018-12-29T23:36:06.170Z,102609.00
2018-12-29T23:39:31.769Z,102610.19
2018-12-29T23:42:57.742Z,102626.97
2018-12-29T23:46:23.356Z,102645.19
2018-12-29T23:49:48.984Z,102641.17
2018-12-29T23:53:14.957Z,102639.03
2018-12-29T23:56:40.750Z,102653.10
